To NAV CANADA Home Page Login to a new session Search on AWWS site Feedback and Comments Disclaimer Vers la page française équivalente Tips FAQ What's new on the site To the Forecasts and Observations / NOTAM section To "File a Flight Plan" website Publications and other links Update of the User's profile FIC Telephone Numbers My Weather Data Folder Route Weather Data Regional Weather Data Local Weather Data To the Forecasts and Observations / NOTAM section
Request Generated 07/03/2015 at 21:57:44 UTC . Weather information available at that time is displayed.

METAR/TAF

TALOYOAK/NU    

METAR CYYH 032100Z 00000KT 15SM -RA FEW012 BKN020 BKN040 OVC060 09/05
A2987 RMK SC2SC3SC1SC2 CU EMBD SLP116=
METAR CYYH 032000Z CCA 34003KT 290V360 15SM VCSH FEW012 FEW020 SCT040
BKN060 BKN090 10/05 A2987 RMK CF1SC2SC2SC2AC1 CF TR AC TR SLP116=
METAR CYYH 032000Z 34003KT 290V360 15SM VCSH FEW012 FEW040 SCT060
SCT090 10/05 A2987 RMK CF1SC2SC2AC1 CF TR AC TR SLP116=
METAR CYYH 031900Z 06005KT 350V090 15SM VCSH FEW012 FEW020 SCT040
BKN060 BKN090 10/05 A2987 RMK SC1SC2SC2SC2AC1 SC TR AC TR SLP116=

TAF CYYH 031738Z 0318/0406 03010KT P6SM FEW020 BKN040 TEMPO 0318/0406
P6SM -SHRA BKN020
RMK NXT FCST BY 040000Z=
Your time UTC time
Weather data provided by Environment Canada and NAV CANADA